Terminal Aerodrome Forecast
Issued by NWS Tulsa, OK

Home | Current Version | Previous Version | Text Only | Print | Product List | Glossary On
Versions: 1 2 3 4 5 6 7 8 9 10 11 12 13 14
000
FTUS44 KTSA 010500 RRA
TAFFSM
TAF
KFSM 010544Z 0106/0206 07008KT 6SM -RA OVC030
     FM010800 08007KT 4SM -RA OVC012
      TEMPO 0108/0111 2SM -RA BR OVC006
     FM011400 26007KT P6SM OVC012
     FM011800 28017G24KT P6SM OVC025
     FM012100 29018G25KT P6SM BKN035=

USA.gov is the U.S. government's official web portal to all federal, state and local government web resources and services.